sensor_id;sensor_type;location;lat;lon;timestamp;pressure;altitude;pressure_sealevel;temperature;humidity
33191;BME280;19554;42.652;23.364;2023-04-29T00:00:06;94682.84;;;10.33;42.97
33191;BME280;19554;42.652;23.364;2023-04-29T00:02:32;94683.97;;;10.27;43.34
33191;BME280;19554;42.652;23.364;2023-04-29T00:04:57;94677.59;;;10.23;43.44
33191;BME280;19554;42.652;23.364;2023-04-29T00:07:23;94661.69;;;10.12;43.21
33191;BME280;19554;42.652;23.364;2023-04-29T00:09:48;94690.41;;;10.20;43.44
33191;BME280;19554;42.652;23.364;2023-04-29T00:12:14;94682.34;;;10.02;43.67
33191;BME280;19554;42.652;23.364;2023-04-29T00:14:39;94680.41;;;10.07;43.49
33191;BME280;19554;42.652;23.364;2023-04-29T00:17:07;94657.69;;;9.86;43.65
33191;BME280;19554;42.652;23.364;2023-04-29T00:19:32;94676.16;;;10.06;43.64
33191;BME280;19554;42.652;23.364;2023-04-29T00:21:57;94687.81;;;10.15;44.27
33191;BME280;19554;42.652;23.364;2023-04-29T00:24:23;94680.41;;;10.07;44.93
33191;BME280;19554;42.652;23.364;2023-04-29T00:26:49;94693.25;;;10.05;45.18
33191;BME280;19554;42.652;23.364;2023-04-29T00:29:14;94665.72;;;9.81;45.50
33191;BME280;19554;42.652;23.364;2023-04-29T00:31:39;94693.34;;;9.95;45.78
33191;BME280;19554;42.652;23.364;2023-04-29T00:34:05;94697.38;;;9.87;46.13
33191;BME280;19554;42.652;23.364;2023-04-29T00:36:30;94601.25;;;9.15;46.34
33191;BME280;19554;42.652;23.364;2023-04-29T00:38:56;94654.53;;;9.49;46.71
33191;BME280;19554;42.652;23.364;2023-04-29T00:41:23;94702.34;;;9.70;46.65
33191;BME280;19554;42.652;23.364;2023-04-29T00:43:48;94691.44;;;9.66;46.73
33191;BME280;19554;42.652;23.364;2023-04-29T00:46:13;94696.28;;;9.59;46.93
33191;BME280;19554;42.652;23.364;2023-04-29T00:48:40;94612.53;;;9.02;46.89
33191;BME280;19554;42.652;23.364;2023-04-29T00:51:06;94687.88;;;9.47;47.13
33191;BME280;19554;42.652;23.364;2023-04-29T00:53:32;94653.66;;;9.25;46.86
33191;BME280;19554;42.652;23.364;2023-04-29T00:55:59;94671.91;;;9.42;46.85
33191;BME280;19554;42.652;23.364;2023-04-29T00:58:26;94682.47;;;9.57;46.64
33191;BME280;19554;42.652;23.364;2023-04-29T01:01:00;94671.22;;;9.60;46.48
33191;BME280;19554;42.652;23.364;2023-04-29T01:03:27;94670.66;;;9.63;46.50
33191;BME280;19554;42.652;23.364;2023-04-29T01:14:26;94648.50;;;9.39;47.34
33191;BME280;19554;42.652;23.364;2023-04-29T01:16:55;94640.09;;;9.27;47.69
33191;BME280;19554;42.652;23.364;2023-04-29T01:21:52;94648.03;;;9.32;47.43
33191;BME280;19554;42.652;23.364;2023-04-29T01:24:17;94653.41;;;9.21;47.61
33191;BME280;19554;42.652;23.364;2023-04-29T01:26:48;94647.06;;;9.17;48.03
33191;BME280;19554;42.652;23.364;2023-04-29T01:29:25;94644.94;;;9.14;48.28
33191;BME280;19554;42.652;23.364;2023-04-29T01:32:05;94654.03;;;9.13;48.01
33191;BME280;19554;42.652;23.364;2023-04-29T01:37:17;94656.03;;;8.92;48.65
33191;BME280;19554;42.652;23.364;2023-04-29T01:40:11;94655.00;;;8.83;49.06
33191;BME280;19554;42.652;23.364;2023-04-29T01:42:46;94653.44;;;8.77;49.24
33191;BME280;19554;42.652;23.364;2023-04-29T01:45:14;94632.44;;;8.70;49.30
33191;BME280;19554;42.652;23.364;2023-04-29T01:47:46;94610.41;;;8.60;49.04
33191;BME280;19554;42.652;23.364;2023-04-29T01:50:13;94645.16;;;8.84;48.80
33191;BME280;19554;42.652;23.364;2023-04-29T01:52:38;94632.13;;;8.77;49.07
33191;BME280;19554;42.652;23.364;2023-04-29T01:55:04;94642.78;;;8.77;49.21
33191;BME280;19554;42.652;23.364;2023-04-29T01:57:30;94642.19;;;8.85;49.24
33191;BME280;19554;42.652;23.364;2023-04-29T01:59:55;94646.47;;;8.86;49.42
33191;BME280;19554;42.652;23.364;2023-04-29T02:02:21;94639.53;;;8.85;49.21
33191;BME280;19554;42.652;23.364;2023-04-29T02:04:48;94645.44;;;8.82;49.26
33191;BME280;19554;42.652;23.364;2023-04-29T02:07:15;94649.16;;;8.81;49.73
33191;BME280;19554;42.652;23.364;2023-04-29T02:09:40;94643.88;;;8.71;49.67
33191;BME280;19554;42.652;23.364;2023-04-29T02:12:05;94590.09;;;8.19;49.99
33191;BME280;19554;42.652;23.364;2023-04-29T02:14:31;94663.03;;;8.73;50.13
33191;BME280;19554;42.652;23.364;2023-04-29T02:16:58;94555.34;;;8.11;49.85
33191;BME280;19554;42.652;23.364;2023-04-29T02:19:24;94651.06;;;8.75;49.93
33191;BME280;19554;42.652;23.364;2023-04-29T02:21:49;94659.53;;;8.77;49.91
33191;BME280;19554;42.652;23.364;2023-04-29T02:24:15;94657.97;;;8.76;50.33
33191;BME280;19554;42.652;23.364;2023-04-29T02:26:40;94660.06;;;8.80;49.97
33191;BME280;19554;42.652;23.364;2023-04-29T02:29:06;94652.63;;;8.76;49.84
33191;BME280;19554;42.652;23.364;2023-04-29T02:31:31;94643.34;;;8.74;49.81
33191;BME280;19554;42.652;23.364;2023-04-29T02:33:56;94652.63;;;8.76;49.61
33191;BME280;19554;42.652;23.364;2023-04-29T02:36:22;94648.41;;;8.70;49.22
33191;BME280;19554;42.652;23.364;2023-04-29T02:38:48;94593.75;;;8.34;49.43
33191;BME280;19554;42.652;23.364;2023-04-29T02:41:17;94656.94;;;8.72;49.30
33191;BME280;19554;42.652;23.364;2023-04-29T02:43:43;94640.22;;;8.62;49.38
33191;BME280;19554;42.652;23.364;2023-04-29T02:46:09;94649.25;;;8.61;49.50
33191;BME280;19554;42.652;23.364;2023-04-29T02:48:34;94599.13;;;8.23;49.66
33191;BME280;19554;42.652;23.364;2023-04-29T02:51:00;94650.09;;;8.51;50.08
33191;BME280;19554;42.652;23.364;2023-04-29T02:53:26;94597.84;;;8.11;50.17
33191;BME280;19554;42.652;23.364;2023-04-29T02:55:51;94659.69;;;8.47;50.27
33191;BME280;19554;42.652;23.364;2023-04-29T02:58:17;94658.09;;;8.46;50.35
33191;BME280;19554;42.652;23.364;2023-04-29T03:00:42;94663.44;;;8.41;50.30
33191;BME280;19554;42.652;23.364;2023-04-29T03:03:08;94680.47;;;8.35;50.44
33191;BME280;19554;42.652;23.364;2023-04-29T03:05:34;94664.81;;;8.13;50.30
33191;BME280;19554;42.652;23.364;2023-04-29T03:07:59;94681.03;;;8.21;50.25
33191;BME280;19554;42.652;23.364;2023-04-29T03:10:25;94678.13;;;8.18;50.63
33191;BME280;19554;42.652;23.364;2023-04-29T03:12:50;94683.69;;;8.16;50.74
33191;BME280;19554;42.652;23.364;2023-04-29T03:15:16;94666.44;;;8.14;51.13
33191;BME280;19554;42.652;23.364;2023-04-29T03:17:41;94678.91;;;8.18;51.40
33191;BME280;19554;42.652;23.364;2023-04-29T03:20:07;94670.41;;;8.21;51.84
33191;BME280;19554;42.652;23.364;2023-04-29T03:22:34;94674.09;;;8.25;51.88
33191;BME280;19554;42.652;23.364;2023-04-29T03:25:00;94675.19;;;8.24;51.85
33191;BME280;19554;42.652;23.364;2023-04-29T03:27:25;94676.75;;;8.20;51.70
33191;BME280;19554;42.652;23.364;2023-04-29T03:29:51;94685.03;;;8.19;51.69
33191;BME280;19554;42.652;23.364;2023-04-29T03:32:16;94643.91;;;7.86;51.54
33191;BME280;19554;42.652;23.364;2023-04-29T03:34:42;94700.19;;;8.13;51.55
33191;BME280;19554;42.652;23.364;2023-04-29T03:37:07;94683.75;;;8.01;52.24
33191;BME280;19554;42.652;23.364;2023-04-29T03:39:33;94695.44;;;8.05;52.79
33191;BME280;19554;42.652;23.364;2023-04-29T03:41:58;94709.75;;;8.09;51.86
33191;BME280;19554;42.652;23.364;2023-04-29T03:44:24;94701.81;;;7.99;51.98
33191;BME280;19554;42.652;23.364;2023-04-29T03:46:50;94710.84;;;8.08;52.29
33191;BME280;19554;42.652;23.364;2023-04-29T03:49:15;94712.41;;;8.09;51.92
33191;BME280;19554;42.652;23.364;2023-04-29T03:51:41;94700.75;;;8.05;52.23
33191;BME280;19554;42.652;23.364;2023-04-29T03:54:06;94708.41;;;8.17;52.14
33191;BME280;19554;42.652;23.364;2023-04-29T03:56:32;94705.47;;;8.23;51.98
33191;BME280;19554;42.652;23.364;2023-04-29T03:58:57;94687.41;;;8.10;52.25
33191;BME280;19554;42.652;23.364;2023-04-29T04:01:23;94697.50;;;8.28;51.98
33191;BME280;19554;42.652;23.364;2023-04-29T04:03:48;94695.91;;;8.38;51.69
33191;BME280;19554;42.652;23.364;2023-04-29T04:06:14;94702.00;;;8.43;51.58
33191;BME280;19554;42.652;23.364;2023-04-29T04:08:39;94693.22;;;8.48;51.47
33191;BME280;19554;42.652;23.364;2023-04-29T04:11:05;94696.63;;;8.53;51.65
33191;BME280;19554;42.652;23.364;2023-04-29T04:13:31;94693.72;;;8.55;51.49
33191;BME280;19554;42.652;23.364;2023-04-29T04:15:56;94710.72;;;8.59;51.26
33191;BME280;19554;42.652;23.364;2023-04-29T04:18:22;94712.59;;;8.59;51.63
33191;BME280;19554;42.652;23.364;2023-04-29T04:20:47;94702.47;;;8.61;51.56
33191;BME280;19554;42.652;23.364;2023-04-29T04:23:13;94689.44;;;8.54;51.62
33191;BME280;19554;42.652;23.364;2023-04-29T04:25:46;94701.66;;;8.60;51.71
33191;BME280;19554;42.652;23.364;2023-04-29T04:28:12;94630.03;;;8.04;52.18
33191;BME280;19554;42.652;23.364;2023-04-29T04:30:38;94708.84;;;8.60;52.05
33191;BME280;19554;42.652;23.364;2023-04-29T04:33:03;94692.06;;;8.64;51.88
33191;BME280;19554;42.652;23.364;2023-04-29T04:35:28;94689.09;;;8.71;51.67
33191;BME280;19554;42.652;23.364;2023-04-29T04:37:54;94694.13;;;8.77;51.61
33191;BME280;19554;42.652;23.364;2023-04-29T04:40:19;94689.59;;;8.78;51.70
33191;BME280;19554;42.652;23.364;2023-04-29T04:42:45;94703.66;;;8.89;51.81
33191;BME280;19554;42.652;23.364;2023-04-29T04:45:10;94699.34;;;8.98;51.93
33191;BME280;19554;42.652;23.364;2023-04-29T04:47:36;94702.78;;;9.04;51.87
33191;BME280;19554;42.652;23.364;2023-04-29T04:50:01;94699.28;;;9.13;51.81
33191;BME280;19554;42.652;23.364;2023-04-29T04:52:28;94702.94;;;9.22;51.59
33191;BME280;19554;42.652;23.364;2023-04-29T04:54:54;94630.81;;;8.80;51.87
33191;BME280;19554;42.652;23.364;2023-04-29T04:57:19;94708.69;;;9.40;52.24
33191;BME280;19554;42.652;23.364;2023-04-29T04:59:45;94712.84;;;9.56;52.14
33191;BME280;19554;42.652;23.364;2023-04-29T05:02:10;94707.09;;;9.73;51.65
33191;BME280;19554;42.652;23.364;2023-04-29T05:04:36;94668.53;;;9.65;51.36
33191;BME280;19554;42.652;23.364;2023-04-29T05:07:01;94682.91;;;9.99;51.73
33191;BME280;19554;42.652;23.364;2023-04-29T05:09:26;94685.41;;;10.14;51.60
33191;BME280;19554;42.652;23.364;2023-04-29T05:11:52;94682.84;;;9.75;51.33
33191;BME280;19554;42.652;23.364;2023-04-29T05:14:18;94662.03;;;9.77;50.44
33191;BME280;19554;42.652;23.364;2023-04-29T05:16:43;94676.25;;;9.96;50.49
33191;BME280;19554;42.652;23.364;2023-04-29T05:19:10;94637.19;;;9.52;49.99
33191;BME280;19554;42.652;23.364;2023-04-29T05:21:36;94659.50;;;9.61;50.87
33191;BME280;19554;42.652;23.364;2023-04-29T05:24:01;94673.16;;;9.84;49.93
33191;BME280;19554;42.652;23.364;2023-04-29T05:26:27;94636.59;;;9.89;48.81
33191;BME280;19554;42.652;23.364;2023-04-29T05:28:52;94614.16;;;9.66;49.05
33191;BME280;19554;42.652;23.364;2023-04-29T05:31:19;94654.75;;;10.11;49.11
33191;BME280;19554;42.652;23.364;2023-04-29T05:33:45;94660.19;;;10.30;48.81
33191;BME280;19554;42.652;23.364;2023-04-29T05:36:10;94652.47;;;10.29;48.87
33191;BME280;19554;42.652;23.364;2023-04-29T05:38:36;94663.19;;;10.48;48.09
33191;BME280;19554;42.652;23.364;2023-04-29T05:41:01;94653.84;;;10.69;47.79
33191;BME280;19554;42.652;23.364;2023-04-29T05:43:28;94642.81;;;10.76;47.04
33191;BME280;19554;42.652;23.364;2023-04-29T05:45:53;94621.59;;;10.65;47.57
33191;BME280;19554;42.652;23.364;2023-04-29T05:48:18;94650.78;;;10.81;46.91
33191;BME280;19554;42.652;23.364;2023-04-29T05:50:44;94648.69;;;10.97;46.75
33191;BME280;19554;42.652;23.364;2023-04-29T05:53:11;94578.72;;;10.38;46.82
33191;BME280;19554;42.652;23.364;2023-04-29T05:55:36;94648.19;;;10.52;47.26
33191;BME280;19554;42.652;23.364;2023-04-29T05:58:03;94659.97;;;10.70;47.18
33191;BME280;19554;42.652;23.364;2023-04-29T06:00:28;94667.59;;;11.00;47.46
33191;BME280;19554;42.652;23.364;2023-04-29T06:02:54;94661.06;;;11.44;46.82
33191;BME280;19554;42.652;23.364;2023-04-29T06:05:19;94660.06;;;11.59;46.00
33191;BME280;19554;42.652;23.364;2023-04-29T06:07:44;94663.13;;;11.85;45.74
33191;BME280;19554;42.652;23.364;2023-04-29T06:10:10;94665.66;;;12.23;45.28
33191;BME280;19554;42.652;23.364;2023-04-29T06:12:35;94641.38;;;12.61;44.24
33191;BME280;19554;42.652;23.364;2023-04-29T06:15:00;94658.56;;;13.10;43.65
33191;BME280;19554;42.652;23.364;2023-04-29T06:17:26;94597.63;;;13.01;43.26
33191;BME280;19554;42.652;23.364;2023-04-29T06:19:54;94645.97;;;13.69;41.64
33191;BME280;19554;42.652;23.364;2023-04-29T06:22:20;94641.44;;;13.78;40.79
33191;BME280;19554;42.652;23.364;2023-04-29T06:24:46;94640.94;;;13.98;40.97
33191;BME280;19554;42.652;23.364;2023-04-29T06:27:13;94651.00;;;14.24;40.60
33191;BME280;19554;42.652;23.364;2023-04-29T06:29:39;94650.59;;;14.39;40.50
33191;BME280;19554;42.652;23.364;2023-04-29T06:32:04;94653.31;;;14.17;41.36
33191;BME280;19554;42.652;23.364;2023-04-29T06:34:29;94651.47;;;14.26;40.24
33191;BME280;19554;42.652;23.364;2023-04-29T06:36:55;94647.41;;;14.37;39.83
33191;BME280;19554;42.652;23.364;2023-04-29T06:39:20;94647.94;;;14.48;40.04
33191;BME280;19554;42.652;23.364;2023-04-29T06:41:46;94653.28;;;14.39;39.37
33191;BME280;19554;42.652;23.364;2023-04-29T06:44:11;94657.34;;;14.68;39.84
33191;BME280;19554;42.652;23.364;2023-04-29T06:46:36;94646.34;;;14.96;38.19
33191;BME280;19554;42.652;23.364;2023-04-29T06:49:03;94637.16;;;14.97;37.89
33191;BME280;19554;42.652;23.364;2023-04-29T06:51:29;94653.81;;;15.33;37.59
33191;BME280;19554;42.652;23.364;2023-04-29T06:53:56;94575.22;;;15.02;36.82
33191;BME280;19554;42.652;23.364;2023-04-29T06:56:21;94642.44;;;15.36;37.58
33191;BME280;19554;42.652;23.364;2023-04-29T06:58:48;94611.06;;;14.97;36.86
33191;BME280;19554;42.652;23.364;2023-04-29T07:01:13;94656.66;;;15.20;37.68
33191;BME280;19554;42.652;23.364;2023-04-29T07:03:39;94651.56;;;15.01;37.42
33191;BME280;19554;42.652;23.364;2023-04-29T07:06:04;94645.06;;;14.84;37.94
33191;BME280;19554;42.652;23.364;2023-04-29T07:08:30;94581.06;;;14.29;38.55
33191;BME280;19554;42.652;23.364;2023-04-29T07:10:56;94636.78;;;14.23;39.32
33191;BME280;19554;42.652;23.364;2023-04-29T07:13:23;94637.13;;;13.99;39.79
33191;BME280;19554;42.652;23.364;2023-04-29T07:15:48;94640.84;;;13.81;40.31
33191;BME280;19554;42.652;23.364;2023-04-29T07:18:13;94636.00;;;14.23;40.28
33191;BME280;19554;42.652;23.364;2023-04-29T07:20:39;94621.44;;;14.55;39.29
33191;BME280;19554;42.652;23.364;2023-04-29T07:23:04;94639.22;;;14.42;39.32
33191;BME280;19554;42.652;23.364;2023-04-29T07:25:30;94640.13;;;14.29;39.37
33191;BME280;19554;42.652;23.364;2023-04-29T07:27:55;94631.19;;;14.11;40.42
33191;BME280;19554;42.652;23.364;2023-04-29T07:30:21;94635.72;;;14.33;40.10
33191;BME280;19554;42.652;23.364;2023-04-29T07:32:47;94636.97;;;14.76;39.84
33191;BME280;19554;42.652;23.364;2023-04-29T07:35:13;94639.03;;;14.70;39.64
33191;BME280;19554;42.652;23.364;2023-04-29T07:37:38;94634.06;;;14.55;40.31
33191;BME280;19554;42.652;23.364;2023-04-29T07:40:04;94629.06;;;14.79;39.63
33191;BME280;19554;42.652;23.364;2023-04-29T07:42:30;94634.66;;;14.91;38.93
33191;BME280;19554;42.652;23.364;2023-04-29T07:44:55;94634.34;;;15.02;38.95
33191;BME280;19554;42.652;23.364;2023-04-29T07:47:20;94544.50;;;14.68;37.53
33191;BME280;19554;42.652;23.364;2023-04-29T07:49:46;94628.03;;;15.50;37.07
33191;BME280;19554;42.652;23.364;2023-04-29T07:52:11;94630.53;;;15.55;37.28
33191;BME280;19554;42.652;23.364;2023-04-29T07:54:36;94620.91;;;15.62;36.76
33191;BME280;19554;42.652;23.364;2023-04-29T07:57:02;94625.00;;;15.69;36.64
33191;BME280;19554;42.652;23.364;2023-04-29T07:59:29;94597.47;;;15.72;35.87
33191;BME280;19554;42.652;23.364;2023-04-29T08:01:55;94617.69;;;15.95;35.31
33191;BME280;19554;42.652;23.364;2023-04-29T08:04:20;94609.69;;;16.25;35.42
33191;BME280;19554;42.652;23.364;2023-04-29T08:06:45;94609.28;;;16.44;34.85
33191;BME280;19554;42.652;23.364;2023-04-29T08:09:11;94552.22;;;16.12;34.22
33191;BME280;19554;42.652;23.364;2023-04-29T08:11:37;94613.34;;;16.58;34.48
33191;BME280;19554;42.652;23.364;2023-04-29T08:14:04;94536.91;;;16.33;33.71
33191;BME280;19554;42.652;23.364;2023-04-29T08:16:30;94611.81;;;16.78;34.09
33191;BME280;19554;42.652;23.364;2023-04-29T08:18:56;94601.31;;;16.86;34.16
33191;BME280;19554;42.652;23.364;2023-04-29T08:21:21;94607.81;;;16.55;34.35
33191;BME280;19554;42.652;23.364;2023-04-29T08:23:47;94605.66;;;16.40;33.79
33191;BME280;19554;42.652;23.364;2023-04-29T08:26:12;94604.44;;;16.28;33.69
33191;BME280;19554;42.652;23.364;2023-04-29T08:28:38;94602.91;;;16.10;32.51
33191;BME280;19554;42.652;23.364;2023-04-29T08:31:04;94598.28;;;16.19;33.85
33191;BME280;19554;42.652;23.364;2023-04-29T08:33:35;94596.16;;;16.33;34.08
33191;BME280;19554;42.652;23.364;2023-04-29T08:36:01;94593.31;;;16.39;33.90
33191;BME280;19554;42.652;23.364;2023-04-29T08:38:30;94595.78;;;16.44;33.83
33191;BME280;19554;42.652;23.364;2023-04-29T08:40:56;94595.91;;;16.56;33.81
33191;BME280;19554;42.652;23.364;2023-04-29T08:43:22;94603.28;;;16.38;33.21
33191;BME280;19554;42.652;23.364;2023-04-29T08:45:48;94597.53;;;16.48;32.74
33191;BME280;19554;42.652;23.364;2023-04-29T08:48:15;94594.13;;;16.60;33.30
33191;BME280;19554;42.652;23.364;2023-04-29T08:50:41;94588.13;;;16.54;33.18
33191;BME280;19554;42.652;23.364;2023-04-29T08:53:08;94585.22;;;16.39;32.64
33191;BME280;19554;42.652;23.364;2023-04-29T08:55:44;94577.88;;;16.18;33.47
33191;BME280;19554;42.652;23.364;2023-04-29T08:58:11;94575.34;;;16.13;33.38
33191;BME280;19554;42.652;23.364;2023-04-29T09:00:39;94574.56;;;16.13;32.94
33191;BME280;19554;42.652;23.364;2023-04-29T09:03:23;94573.22;;;16.57;33.48
33191;BME280;19554;42.652;23.364;2023-04-29T09:05:52;94534.31;;;16.75;31.67
33191;BME280;19554;42.652;23.364;2023-04-29T09:08:18;94564.63;;;17.14;31.61
33191;BME280;19554;42.652;23.364;2023-04-29T09:10:45;94575.41;;;16.93;31.04
33191;BME280;19554;42.652;23.364;2023-04-29T09:13:28;94563.84;;;16.93;31.56
33191;BME280;19554;42.652;23.364;2023-04-29T09:19:29;94532.91;;;16.40;32.52
33191;BME280;19554;42.652;23.364;2023-04-29T09:21:56;94546.66;;;16.47;31.61
33191;BME280;19554;42.652;23.364;2023-04-29T09:24:26;94556.13;;;16.53;31.91
33191;BME280;19554;42.652;23.364;2023-04-29T09:26:52;94483.56;;;16.27;31.90
33191;BME280;19554;42.652;23.364;2023-04-29T09:29:17;94553.06;;;17.14;31.05
33191;BME280;19554;42.652;23.364;2023-04-29T09:31:44;94546.06;;;17.34;31.23
33191;BME280;19554;42.652;23.364;2023-04-29T09:34:10;94543.38;;;17.46;30.79
33191;BME280;19554;42.652;23.364;2023-04-29T09:36:49;94546.06;;;17.34;29.12
33191;BME280;19554;42.652;23.364;2023-04-29T09:39:17;94542.38;;;17.17;28.71
33191;BME280;19554;42.652;23.364;2023-04-29T09:44:18;94535.69;;;16.81;29.06
33191;BME280;19554;42.652;23.364;2023-04-29T09:49:24;94478.22;;;16.48;29.89
33191;BME280;19554;42.652;23.364;2023-04-29T09:51:58;94520.75;;;17.05;30.42
33191;BME280;19554;42.652;23.364;2023-04-29T09:54:26;94463.44;;;16.96;30.12
33191;BME280;19554;42.652;23.364;2023-04-29T09:56:56;94518.91;;;17.51;29.55
33191;BME280;19554;42.652;23.364;2023-04-29T09:59:23;94492.16;;;17.58;29.92
33191;BME280;19554;42.652;23.364;2023-04-29T10:01:56;94463.09;;;17.43;30.07
33191;BME280;19554;42.652;23.364;2023-04-29T10:04:25;94505.19;;;17.89;29.81
33191;BME280;19554;42.652;23.364;2023-04-29T10:06:53;94502.38;;;17.86;29.63
33191;BME280;19554;42.652;23.364;2023-04-29T10:09:20;94489.75;;;17.90;30.14
33191;BME280;19554;42.652;23.364;2023-04-29T10:11:48;94494.50;;;17.93;29.34
33191;BME280;19554;42.652;23.364;2023-04-29T10:14:16;94484.88;;;17.71;29.94
33191;BME280;19554;42.652;23.364;2023-04-29T10:17:01;94490.34;;;17.50;29.35
33191;BME280;19554;42.652;23.364;2023-04-29T10:19:38;94481.59;;;17.65;30.42
33191;BME280;19554;42.652;23.364;2023-04-29T10:22:08;94485.47;;;17.43;29.88
33191;BME280;19554;42.652;23.364;2023-04-29T10:24:38;94473.03;;;17.63;28.86
33191;BME280;19554;42.652;23.364;2023-04-29T10:27:06;94485.16;;;17.78;27.09
33191;BME280;19554;42.652;23.364;2023-04-29T10:29:33;94473.09;;;17.88;27.77
33191;BME280;19554;42.652;23.364;2023-04-29T10:32:02;94476.44;;;17.72;27.76
33191;BME280;19554;42.652;23.364;2023-04-29T10:34:28;94471.97;;;17.76;27.95
33191;BME280;19554;42.652;23.364;2023-04-29T10:36:56;94475.56;;;17.81;28.10
33191;BME280;19554;42.652;23.364;2023-04-29T10:42:19;94395.09;;;16.92;28.14
33191;BME280;19554;42.652;23.364;2023-04-29T10:53:04;94470.06;;;17.89;27.28
33191;BME280;19554;42.652;23.364;2023-04-29T10:55:30;94466.34;;;17.94;27.89
33191;BME280;19554;42.652;23.364;2023-04-29T10:57:56;94477.38;;;18.01;27.66
33191;BME280;19554;42.652;23.364;2023-04-29T11:00:26;94465.59;;;18.06;27.99
33191;BME280;19554;42.652;23.364;2023-04-29T11:03:04;94473.34;;;18.07;27.93
33191;BME280;19554;42.652;23.364;2023-04-29T11:05:31;94458.25;;;17.82;27.78
33191;BME280;19554;42.652;23.364;2023-04-29T11:08:13;94460.50;;;17.80;27.45
33191;BME280;19554;42.652;23.364;2023-04-29T11:10:47;94463.00;;;17.85;26.09
33191;BME280;19554;42.652;23.364;2023-04-29T11:13:26;94450.38;;;17.76;26.60
33191;BME280;19554;42.652;23.364;2023-04-29T11:16:14;94462.28;;;17.88;27.57
33191;BME280;19554;42.652;23.364;2023-04-29T11:19:04;94463.00;;;17.85;26.83
33191;BME280;19554;42.652;23.364;2023-04-29T11:21:33;94447.00;;;17.80;26.88
33191;BME280;19554;42.652;23.364;2023-04-29T11:23:59;94452.63;;;17.87;26.86
33191;BME280;19554;42.652;23.364;2023-04-29T11:26:25;94450.72;;;17.87;26.83
33191;BME280;19554;42.652;23.364;2023-04-29T11:28:51;94461.50;;;17.87;25.36
33191;BME280;19554;42.652;23.364;2023-04-29T11:31:18;94440.34;;;17.77;26.12
33191;BME280;19554;42.652;23.364;2023-04-29T11:33:43;94396.44;;;17.31;27.20
33191;BME280;19554;42.652;23.364;2023-04-29T11:36:10;94393.28;;;17.29;27.72
33191;BME280;19554;42.652;23.364;2023-04-29T11:38:38;94453.28;;;17.71;27.81
33191;BME280;19554;42.652;23.364;2023-04-29T11:41:04;94439.75;;;17.59;28.12
33191;BME280;19554;42.652;23.364;2023-04-29T11:43:30;94411.41;;;17.41;27.79
33191;BME280;19554;42.652;23.364;2023-04-29T11:45:56;94451.47;;;17.75;28.55
33191;BME280;19554;42.652;23.364;2023-04-29T11:48:23;94450.38;;;17.76;28.21
33191;BME280;19554;42.652;23.364;2023-04-29T11:50:50;94458.94;;;17.79;27.76
33191;BME280;19554;42.652;23.364;2023-04-29T11:53:19;94386.66;;;17.39;28.22
33191;BME280;19554;42.652;23.364;2023-04-29T11:55:44;94453.66;;;17.82;28.42
33191;BME280;19554;42.652;23.364;2023-04-29T11:58:10;94395.44;;;17.48;27.54
33191;BME280;19554;42.652;23.364;2023-04-29T12:00:36;94453.75;;;17.86;27.41
33191;BME280;19554;42.652;23.364;2023-04-29T12:03:12;94447.66;;;17.76;27.85
33191;BME280;19554;42.652;23.364;2023-04-29T12:05:37;94443.59;;;17.58;28.49
33191;BME280;19554;42.652;23.364;2023-04-29T12:08:06;94445.16;;;17.59;28.93
33191;BME280;19554;42.652;23.364;2023-04-29T12:10:34;94444.44;;;17.38;29.59
33191;BME280;19554;42.652;23.364;2023-04-29T12:13:00;94449.50;;;17.27;30.61
33191;BME280;19554;42.652;23.364;2023-04-29T12:15:26;94445.53;;;17.24;30.95
33191;BME280;19554;42.652;23.364;2023-04-29T12:17:53;94436.06;;;17.18;31.26
33191;BME280;19554;42.652;23.364;2023-04-29T12:20:19;94439.66;;;17.10;31.74
33191;BME280;19554;42.652;23.364;2023-04-29T12:22:45;94443.25;;;17.14;32.39
33191;BME280;19554;42.652;23.364;2023-04-29T12:25:11;94436.91;;;16.98;32.83
33191;BME280;19554;42.652;23.364;2023-04-29T12:27:38;94446.25;;;17.00;32.93
33191;BME280;19554;42.652;23.364;2023-04-29T12:30:06;94430.97;;;17.04;32.83
33191;BME280;19554;42.652;23.364;2023-04-29T12:32:33;94416.25;;;17.02;33.16
33191;BME280;19554;42.652;23.364;2023-04-29T12:34:59;94439.19;;;17.08;32.87
33191;BME280;19554;42.652;23.364;2023-04-29T12:37:24;94366.72;;;16.73;32.88
33191;BME280;19554;42.652;23.364;2023-04-29T12:39:50;94340.38;;;16.79;32.36
33191;BME280;19554;42.652;23.364;2023-04-29T12:42:17;94415.09;;;17.36;31.75
33191;BME280;19554;42.652;23.364;2023-04-29T12:44:45;94426.00;;;17.40;31.60
33191;BME280;19554;42.652;23.364;2023-04-29T12:47:14;94419.28;;;17.46;31.42
33191;BME280;19554;42.652;23.364;2023-04-29T12:49:41;94418.13;;;17.47;32.05
33191;BME280;19554;42.652;23.364;2023-04-29T12:52:10;94414.56;;;17.55;32.19
33191;BME280;19554;42.652;23.364;2023-04-29T12:54:37;94315.56;;;16.86;32.54
33191;BME280;19554;42.652;23.364;2023-04-29T12:57:05;94342.16;;;17.20;32.18
33191;BME280;19554;42.652;23.364;2023-04-29T12:59:30;94422.72;;;17.80;31.62
33191;BME280;19554;42.652;23.364;2023-04-29T13:01:56;94408.75;;;17.77;31.76
33191;BME280;19554;42.652;23.364;2023-04-29T13:04:21;94411.91;;;17.80;32.02
33191;BME280;19554;42.652;23.364;2023-04-29T13:06:47;94419.78;;;17.85;32.05
33191;BME280;19554;42.652;23.364;2023-04-29T13:09:12;94413.03;;;17.91;31.63
33191;BME280;19554;42.652;23.364;2023-04-29T13:11:38;94418.66;;;17.86;31.83
33191;BME280;19554;42.652;23.364;2023-04-29T13:14:04;94351.38;;;17.44;32.29
33191;BME280;19554;42.652;23.364;2023-04-29T13:16:31;94356.22;;;17.50;33.33
33191;BME280;19554;42.652;23.364;2023-04-29T13:18:57;94411.47;;;18.02;33.25
33191;BME280;19554;42.652;23.364;2023-04-29T13:21:23;94405.91;;;18.11;33.31
33191;BME280;19554;42.652;23.364;2023-04-29T13:23:48;94322.78;;;17.67;33.08